Time;durP1;ratioP1;P1;durP2;ratioP2;P2;SDS_P1;SDS_P2;PMS_P1;PMS_P2;Temp;Humidity;BMP_temperature;BMP_pressure;BME280_temperature;BME280_humidity;BME280_pressure;Samples;Min_cycle;Max_cycle;Signal;HPM_P1;HPM_P2
2022/10/13 00:01:45;;;;;;;10.93;7.07;;;;;;;;;;5086147;28;20036;-61
2022/10/13 00:04:11;;;;;;;20.85;7.78;;;;;;;;;;5083771;28;20055;-60
2022/10/13 00:06:36;;;;;;;13.88;7.57;;;;;;;;;;5085035;28;20029;-60
2022/10/13 00:09:02;;;;;;;14.55;7.63;;;;;;;;;;5084421;28;20052;-61
2022/10/13 00:11:29;;;;;;;20.48;7.45;;;;;;;;;;5087105;28;20054;-61
2022/10/13 00:14:01;;;;;;;12.50;7.65;;;;;;;;;;5084473;28;20394;-61
2022/10/13 00:16:27;;;;;;;17.50;8.88;;;;;;;;;;5078455;28;20058;-61
2022/10/13 00:18:53;;;;;;;15.10;7.88;;;;;;;;;;5087390;28;20024;-61
2022/10/13 00:21:22;;;;;;;14.57;7.78;;;;;;;;;;5086715;28;20520;-61
2022/10/13 00:23:48;;;;;;;17.40;7.60;;;;;;;;;;5086728;28;20485;-61
2022/10/13 00:26:15;;;;;;;12.68;7.45;;;;;;;;;;5087961;28;20518;-61
2022/10/13 00:28:41;;;;;;;17.73;7.57;;;;;;;;;;5087969;28;20051;-61
2022/10/13 00:31:18;;;;;;;12.75;7.35;;;;;;;;;;5087586;28;20386;-61
2022/10/13 00:33:43;;;;;;;22.77;8.80;;;;;;;;;;5090468;28;20026;-60
2022/10/13 00:36:09;;;;;;;13.65;7.43;;;;;;;;;;5084390;28;20102;-61
2022/10/13 00:38:34;;;;;;;17.23;8.30;;;;;;;;;;5089246;28;20093;-60
2022/10/13 00:41:00;;;;;;;10.77;7.15;;;;;;;;;;5089070;28;20048;-61
2022/10/13 00:43:47;;;;;;;17.60;8.32;;;;;;;;;;5086519;28;20039;-61
2022/10/13 00:46:14;;;;;;;18.42;8.93;;;;;;;;;;5088542;28;20063;-61
2022/10/13 00:48:40;;;;;;;37.10;9.63;;;;;;;;;;5087527;28;20130;-61
2022/10/13 00:51:07;;;;;;;40.70;10.02;;;;;;;;;;5083076;28;20482;-60
2022/10/13 00:53:35;;;;;;;53.63;9.95;;;;;;;;;;5085324;28;20047;-60
2022/10/13 00:56:00;;;;;;;26.67;9.50;;;;;;;;;;5087921;28;20069;-59
2022/10/13 00:58:31;;;;;;;48.40;10.80;;;;;;;;;;5085955;28;20127;-61
2022/10/13 01:00:57;;;;;;;57.97;9.80;;;;;;;;;;5084743;28;20118;-60
2022/10/13 01:03:24;;;;;;;24.58;9.75;;;;;;;;;;5086988;28;20457;-64
2022/10/13 01:05:54;;;;;;;30.27;10.05;;;;;;;;;;5083866;28;20091;-62
2022/10/13 01:08:21;;;;;;;25.27;10.60;;;;;;;;;;5083424;28;20445;-60
2022/10/13 01:11:17;;;;;;;18.75;9.57;;;;;;;;;;5088219;28;20093;-62
2022/10/13 01:13:49;;;;;;;21.00;9.38;;;;;;;;;;5083616;28;20058;-60
2022/10/13 01:16:17;;;;;;;14.68;9.13;;;;;;;;;;5083112;28;20160;-62
2022/10/13 01:19:09;;;;;;;19.80;9.32;;;;;;;;;;5087362;28;20055;-61
2022/10/13 01:22:05;;;;;;;14.20;8.70;;;;;;;;;;5067819;28;20040;-61
2022/10/13 01:24:43;;;;;;;23.58;9.35;;;;;;;;;;5083729;28;20044;-60
2022/10/13 01:27:13;;;;;;;16.02;8.65;;;;;;;;;;5084247;28;20048;-69
2022/10/13 01:30:07;;;;;;;14.52;8.70;;;;;;;;;;5087258;28;20058;-69
2022/10/13 01:32:35;;;;;;;14.50;8.43;;;;;;;;;;5087253;28;20044;-68
2022/10/13 01:35:06;;;;;;;15.70;8.73;;;;;;;;;;5086652;28;20055;-69
2022/10/13 01:37:46;;;;;;;17.98;9.05;;;;;;;;;;5084428;28;20099;-69
2022/10/13 01:40:22;;;;;;;17.67;9.05;;;;;;;;;;5086142;28;20056;-69
2022/10/13 01:43:07;;;;;;;17.52;9.05;;;;;;;;;;5084573;28;20029;-69
2022/10/13 01:45:41;;;;;;;16.55;8.45;;;;;;;;;;5086456;28;20032;-69
2022/10/13 01:48:08;;;;;;;17.77;7.78;;;;;;;;;;5084781;28;20040;-70
2022/10/13 01:50:35;;;;;;;14.27;7.85;;;;;;;;;;5082909;28;20050;-70
2022/10/13 01:53:02;;;;;;;16.65;7.80;;;;;;;;;;5084459;28;20048;-69
2022/10/13 01:55:28;;;;;;;14.63;7.95;;;;;;;;;;5084602;28;20058;-70
2022/10/13 01:57:54;;;;;;;15.48;8.30;;;;;;;;;;5082423;28;20460;-69
2022/10/13 02:00:20;;;;;;;15.82;8.00;;;;;;;;;;5082059;28;20028;-69
2022/10/13 02:03:04;;;;;;;16.75;8.45;;;;;;;;;;5086124;28;20383;-69
2022/10/13 02:05:42;;;;;;;21.95;8.05;;;;;;;;;;5082324;28;20526;-69
2022/10/13 02:08:27;;;;;;;15.38;7.63;;;;;;;;;;5082683;28;20533;-69
2022/10/13 02:11:00;;;;;;;13.70;7.60;;;;;;;;;;5083039;28;20052;-69
2022/10/13 02:13:28;;;;;;;15.25;7.40;;;;;;;;;;5082661;28;20036;-69
2022/10/13 02:15:57;;;;;;;16.38;7.97;;;;;;;;;;5083167;28;20035;-69
2022/10/13 02:18:27;;;;;;;19.40;8.73;;;;;;;;;;5082817;28;20069;-69
2022/10/13 02:20:53;;;;;;;18.55;8.27;;;;;;;;;;5085709;28;20047;-69
2022/10/13 02:23:19;;;;;;;14.38;7.53;;;;;;;;;;5086194;28;20096;-69
2022/10/13 02:25:46;;;;;;;20.92;8.27;;;;;;;;;;5084230;28;20036;-69
2022/10/13 02:28:13;;;;;;;19.20;8.32;;;;;;;;;;5084592;28;20143;-69
2022/10/13 02:30:39;;;;;;;14.77;7.88;;;;;;;;;;5080935;28;20167;-70
2022/10/13 02:33:05;;;;;;;16.85;8.68;;;;;;;;;;5079665;28;20032;-69
2022/10/13 02:35:31;;;;;;;15.35;7.85;;;;;;;;;;5082535;28;20051;-69
2022/10/13 02:37:57;;;;;;;16.08;8.02;;;;;;;;;;5085968;28;20104;-72
2022/10/13 02:40:22;;;;;;;17.08;8.75;;;;;;;;;;5083553;28;20044;-69
2022/10/13 02:42:48;;;;;;;27.25;8.55;;;;;;;;;;5080887;28;20032;-69
2022/10/13 02:45:13;;;;;;;20.63;9.63;;;;;;;;;;5081942;28;20027;-72
2022/10/13 02:47:39;;;;;;;19.35;9.15;;;;;;;;;;5083506;28;20126;-69
2022/10/13 02:50:05;;;;;;;16.25;8.68;;;;;;;;;;5081078;28;20047;-69
2022/10/13 02:52:31;;;;;;;16.77;9.13;;;;;;;;;;5083391;28;20059;-69
2022/10/13 02:54:56;;;;;;;19.30;9.25;;;;;;;;;;5083129;28;20047;-69
2022/10/13 02:57:22;;;;;;;23.92;9.25;;;;;;;;;;5084705;28;20062;-69
2022/10/13 02:59:47;;;;;;;26.10;9.20;;;;;;;;;;5081833;28;20040;-69
2022/10/13 03:02:13;;;;;;;15.57;8.13;;;;;;;;;;5083652;28;20044;-68
2022/10/13 03:04:38;;;;;;;17.15;8.32;;;;;;;;;;5083940;28;20045;-69
2022/10/13 03:07:04;;;;;;;14.15;8.55;;;;;;;;;;5082675;28;20101;-61
2022/10/13 03:09:29;;;;;;;17.90;8.68;;;;;;;;;;5086690;28;20027;-60
2022/10/13 03:11:54;;;;;;;19.95;9.82;;;;;;;;;;5084495;28;20119;-61
2022/10/13 03:14:20;;;;;;;21.00;9.45;;;;;;;;;;5082232;28;20490;-61
2022/10/13 03:16:45;;;;;;;17.48;8.85;;;;;;;;;;5079229;28;20205;-61
2022/10/13 03:19:11;;;;;;;14.80;8.15;;;;;;;;;;5082506;28;20052;-62
2022/10/13 03:21:38;;;;;;;16.92;8.68;;;;;;;;;;5083034;28;20024;-61
2022/10/13 03:24:04;;;;;;;19.17;8.50;;;;;;;;;;5082088;28;20285;-61
2022/10/13 03:26:30;;;;;;;15.90;8.88;;;;;;;;;;5083103;28;20403;-60
2022/10/13 03:28:56;;;;;;;15.40;8.05;;;;;;;;;;5081545;28;20047;-61
2022/10/13 03:31:21;;;;;;;18.38;7.93;;;;;;;;;;5082335;28;20044;-61
2022/10/13 03:33:46;;;;;;;13.07;8.40;;;;;;;;;;5081876;28;20028;-61
2022/10/13 03:36:12;;;;;;;16.23;7.93;;;;;;;;;;5084544;28;20713;-61
2022/10/13 03:38:38;;;;;;;11.93;7.45;;;;;;;;;;5079979;28;20135;-61
2022/10/13 03:41:08;;;;;;;16.30;8.85;;;;;;;;;;5080492;28;20036;-61
2022/10/13 03:43:34;;;;;;;14.18;7.80;;;;;;;;;;5083439;28;20124;-60
2022/10/13 03:46:02;;;;;;;15.63;7.90;;;;;;;;;;5080955;28;20081;-60
2022/10/13 03:48:28;;;;;;;12.95;7.03;;;;;;;;;;5085286;28;20119;-61
2022/10/13 03:50:54;;;;;;;11.07;7.22;;;;;;;;;;5076259;28;20395;-60
2022/10/13 03:53:20;;;;;;;11.13;7.43;;;;;;;;;;5079261;28;20486;-61
2022/10/13 03:55:54;;;;;;;10.70;7.05;;;;;;;;;;5084635;28;20122;-61
2022/10/13 03:58:22;;;;;;;11.80;7.10;;;;;;;;;;5089368;28;20051;-60
2022/10/13 04:00:48;;;;;;;13.95;7.22;;;;;;;;;;5084667;28;20105;-61
2022/10/13 04:03:14;;;;;;;12.77;6.90;;;;;;;;;;5083104;28;20020;-64
2022/10/13 04:05:39;;;;;;;9.10;6.55;;;;;;;;;;5085515;28;20055;-61
2022/10/13 04:08:05;;;;;;;10.18;7.40;;;;;;;;;;5083990;28;20097;-64
2022/10/13 04:10:31;;;;;;;12.93;6.97;;;;;;;;;;5085673;28;20048;-61
2022/10/13 04:12:56;;;;;;;12.68;7.47;;;;;;;;;;5084730;28;20094;-61
2022/10/13 04:15:22;;;;;;;14.43;6.75;;;;;;;;;;5090513;28;20028;-60
2022/10/13 04:17:47;;;;;;;9.55;6.90;;;;;;;;;;5088334;28;20131;-61
2022/10/13 04:20:13;;;;;;;8.43;5.97;;;;;;;;;;5082644;28;20048;-61
2022/10/13 04:22:38;;;;;;;10.70;6.70;;;;;;;;;;5083080;28;20277;-61
2022/10/13 04:25:05;;;;;;;9.43;6.00;;;;;;;;;;5082626;28;20059;-61
2022/10/13 04:27:31;;;;;;;10.13;6.22;;;;;;;;;;5082028;28;20043;-64
2022/10/13 04:29:57;;;;;;;11.40;6.30;;;;;;;;;;5086610;28;20032;-64
2022/10/13 04:32:23;;;;;;;8.63;6.18;;;;;;;;;;5083717;28;20052;-64
2022/10/13 04:34:48;;;;;;;9.25;6.18;;;;;;;;;;5084005;28;20094;-64
2022/10/13 04:37:13;;;;;;;9.18;6.22;;;;;;;;;;5081664;28;20414;-64
2022/10/13 04:39:39;;;;;;;11.98;6.45;;;;;;;;;;5078425;28;20032;-65
2022/10/13 04:42:05;;;;;;;8.10;6.15;;;;;;;;;;5090420;28;20047;-65
2022/10/13 04:44:30;;;;;;;11.02;6.47;;;;;;;;;;5083682;28;20093;-65
2022/10/13 04:46:56;;;;;;;10.95;5.78;;;;;;;;;;5082768;28;20044;-64
2022/10/13 04:49:23;;;;;;;9.07;6.10;;;;;;;;;;5080809;28;20398;-65
2022/10/13 04:51:48;;;;;;;9.60;6.00;;;;;;;;;;5089809;28;20026;-64
2022/10/13 04:54:14;;;;;;;11.32;6.90;;;;;;;;;;5090762;28;20032;-65
2022/10/13 04:56:39;;;;;;;11.38;6.38;;;;;;;;;;5087573;28;20048;-73
2022/10/13 04:59:05;;;;;;;9.88;6.53;;;;;;;;;;5088505;28;20675;-72
2022/10/13 05:01:31;;;;;;;9.23;6.40;;;;;;;;;;5086455;28;20046;-71
2022/10/13 05:03:59;;;;;;;14.40;6.63;;;;;;;;;;5087648;28;20024;-72
2022/10/13 05:06:27;;;;;;;12.65;6.43;;;;;;;;;;5089025;28;20024;-73
2022/10/13 05:08:53;;;;;;;17.58;6.70;;;;;;;;;;5086270;28;20147;-71
2022/10/13 05:11:19;;;;;;;13.25;6.90;;;;;;;;;;5085868;28;20642;-64
2022/10/13 05:13:45;;;;;;;12.90;7.53;;;;;;;;;;5087801;28;20074;-64
2022/10/13 05:16:13;;;;;;;16.77;7.15;;;;;;;;;;5084169;28;20059;-66
2022/10/13 05:18:39;;;;;;;13.65;7.90;;;;;;;;;;5085610;28;20031;-65
2022/10/13 05:21:10;;;;;;;14.80;7.90;;;;;;;;;;5087133;28;20456;-65
2022/10/13 05:23:36;;;;;;;12.88;6.78;;;;;;;;;;5087017;28;20481;-65
2022/10/13 05:26:07;;;;;;;17.08;10.73;;;;;;;;;;5086728;28;20076;-62
2022/10/13 05:28:32;;;;;;;23.73;10.75;;;;;;;;;;5084410;28;20040;-62
2022/10/13 05:31:17;;;;;;;17.58;10.38;;;;;;;;;;5081429;27;20058;-63
2022/10/13 05:33:44;;;;;;;28.02;10.65;;;;;;;;;;5083395;28;20017;-61
2022/10/13 05:36:15;;;;;;;17.27;10.00;;;;;;;;;;5101833;27;20044;-63
2022/10/13 05:38:41;;;;;;;26.55;10.15;;;;;;;;;;5079824;28;20040;-63
2022/10/13 05:41:09;;;;;;;31.33;10.13;;;;;;;;;;5080586;28;20074;-63
2022/10/13 05:43:37;;;;;;;24.95;11.30;;;;;;;;;;5087348;28;20043;-63
2022/10/13 05:46:02;;;;;;;22.65;10.55;;;;;;;;;;5080461;28;20049;-63
2022/10/13 05:48:30;;;;;;;24.00;10.43;;;;;;;;;;5084700;28;20483;-62
2022/10/13 05:50:57;;;;;;;25.15;10.23;;;;;;;;;;5086313;28;20120;-60
2022/10/13 05:53:24;;;;;;;23.30;9.55;;;;;;;;;;5084794;28;20048;-62
2022/10/13 05:55:51;;;;;;;25.33;11.68;;;;;;;;;;5087140;28;20048;-62
2022/10/13 05:58:17;;;;;;;30.58;10.10;;;;;;;;;;5082952;28;20155;-61
2022/10/13 06:00:43;;;;;;;25.42;10.98;;;;;;;;;;5081621;28;20088;-63
2022/10/13 06:03:16;;;;;;;28.17;10.45;;;;;;;;;;5080429;28;20067;-62
2022/10/13 06:05:44;;;;;;;;;;;;;;;;;;5087026;28;20044;-63
2022/10/13 06:08:09;;;;;;;19.35;9.77;;;;;;;;;;5083804;28;20013;-62
2022/10/13 06:10:36;;;;;;;24.02;10.30;;;;;;;;;;5078744;28;20067;-62
2022/10/13 06:13:02;;;;;;;21.83;10.77;;;;;;;;;;5081837;28;21257;-62
2022/10/13 06:15:27;;;;;;;27.58;11.75;;;;;;;;;;5086274;28;20028;-64
2022/10/13 06:17:53;;;;;;;23.02;10.57;;;;;;;;;;5083278;28;20561;-64
2022/10/13 06:20:19;;;;;;;27.60;11.23;;;;;;;;;;5082058;28;20052;-60
2022/10/13 06:22:45;;;;;;;23.27;10.98;;;;;;;;;;5083411;28;20048;-60
2022/10/13 06:25:10;;;;;;;32.15;11.98;;;;;;;;;;5082414;28;20059;-60
2022/10/13 06:27:36;;;;;;;27.75;12.18;;;;;;;;;;5080254;28;20039;-61
2022/10/13 06:30:02;;;;;;;25.40;12.35;;;;;;;;;;5082513;28;20450;-61
2022/10/13 06:32:27;;;;;;;35.28;12.95;;;;;;;;;;5082619;28;20071;-61
2022/10/13 06:34:53;;;;;;;28.52;13.60;;;;;;;;;;5087288;28;20121;-60
2022/10/13 06:37:19;;;;;;;32.90;13.93;;;;;;;;;;5079451;28;20048;-60
2022/10/13 06:39:44;;;;;;;37.08;14.73;;;;;;;;;;5083166;28;20020;-61
2022/10/13 06:42:10;;;;;;;39.75;14.60;;;;;;;;;;5083321;28;20511;-61
2022/10/13 06:44:35;;;;;;;36.30;13.88;;;;;;;;;;5085738;28;20063;-61
2022/10/13 06:47:02;;;;;;;33.28;13.63;;;;;;;;;;5076906;28;20044;-62
2022/10/13 06:49:27;;;;;;;25.30;12.82;;;;;;;;;;5081739;28;20040;-61
2022/10/13 06:51:53;;;;;;;28.95;13.20;;;;;;;;;;5081913;28;20521;-61
2022/10/13 06:54:18;;;;;;;23.95;12.05;;;;;;;;;;5083429;28;20024;-61
2022/10/13 06:56:44;;;;;;;27.45;12.23;;;;;;;;;;5081880;28;20499;-61
2022/10/13 06:59:09;;;;;;;22.30;11.68;;;;;;;;;;5082309;28;20648;-62
2022/10/13 07:01:34;;;;;;;23.30;11.52;;;;;;;;;;5086554;28;20131;-62
2022/10/13 07:04:00;;;;;;;24.73;11.45;;;;;;;;;;5082537;28;20036;-62
2022/10/13 07:06:25;;;;;;;22.52;10.55;;;;;;;;;;5083055;28;20032;-62
2022/10/13 07:08:51;;;;;;;28.13;11.23;;;;;;;;;;5083541;28;20036;-61
2022/10/13 07:11:17;;;;;;;17.63;10.35;;;;;;;;;;5084208;28;20483;-62
2022/10/13 07:13:43;;;;;;;19.33;10.32;;;;;;;;;;5083577;28;20043;-61
2022/10/13 07:16:09;;;;;;;17.60;8.98;;;;;;;;;;5083305;28;20059;-62
2022/10/13 07:18:35;;;;;;;19.63;10.57;;;;;;;;;;5083719;28;20028;-62
2022/10/13 07:21:01;;;;;;;20.55;10.32;;;;;;;;;;5083246;28;20080;-62
2022/10/13 07:23:27;;;;;;;19.63;10.57;;;;;;;;;;5082795;28;20039;-60
2022/10/13 07:25:53;;;;;;;19.77;10.60;;;;;;;;;;5082027;28;20493;-61
2022/10/13 07:28:19;;;;;;;20.00;10.65;;;;;;;;;;5087432;28;20050;-60
2022/10/13 07:30:44;;;;;;;23.88;11.50;;;;;;;;;;5084859;28;20039;-60
2022/10/13 07:33:10;;;;;;;15.95;9.43;;;;;;;;;;5083707;28;20481;-63
2022/10/13 07:35:39;;;;;;;19.08;10.20;;;;;;;;;;5082955;28;20040;-61
2022/10/13 07:38:05;;;;;;;19.70;9.40;;;;;;;;;;5082106;28;20036;-61
2022/10/13 07:40:30;;;;;;;16.77;8.95;;;;;;;;;;5089301;28;20040;-61
2022/10/13 07:42:56;;;;;;;19.65;9.70;;;;;;;;;;5084455;28;20028;-61
2022/10/13 07:45:21;;;;;;;20.17;9.52;;;;;;;;;;5083213;28;20032;-61
2022/10/13 07:47:47;;;;;;;17.48;8.30;;;;;;;;;;5087089;28;20043;-61
2022/10/13 07:50:12;;;;;;;18.60;9.45;;;;;;;;;;5085225;28;20363;-61
2022/10/13 07:52:38;;;;;;;19.17;8.95;;;;;;;;;;5081493;28;20048;-61
2022/10/13 07:55:04;;;;;;;13.85;8.25;;;;;;;;;;5085970;28;20470;-61
2022/10/13 07:57:29;;;;;;;15.38;8.20;;;;;;;;;;5086122;28;20030;-61
2022/10/13 07:59:54;;;;;;;16.90;8.25;;;;;;;;;;5079984;28;20039;-61
2022/10/13 08:02:20;;;;;;;14.75;7.75;;;;;;;;;;5082357;28;20055;-60
2022/10/13 08:04:45;;;;;;;12.77;7.30;;;;;;;;;;5082069;28;20056;-61
2022/10/13 08:07:11;;;;;;;12.38;7.13;;;;;;;;;;5083828;28;20072;-61
2022/10/13 08:09:37;;;;;;;17.15;7.20;;;;;;;;;;5076762;28;20720;-61
2022/10/13 08:12:02;;;;;;;15.70;7.60;;;;;;;;;;5077866;28;20056;-61
2022/10/13 08:14:29;;;;;;;11.75;7.15;;;;;;;;;;5083924;28;20111;-62
2022/10/13 08:16:56;;;;;;;13.07;7.43;;;;;;;;;;5081923;28;20059;-62
2022/10/13 08:19:25;;;;;;;14.10;7.43;;;;;;;;;;5082744;28;20059;-62
2022/10/13 08:21:51;;;;;;;21.10;8.75;;;;;;;;;;5084033;28;20028;-62
2022/10/13 08:24:17;;;;;;;15.52;7.70;;;;;;;;;;5082351;28;20069;-61
2022/10/13 08:26:44;;;;;;;17.17;8.45;;;;;;;;;;5083057;28;20040;-61
2022/10/13 08:29:09;;;;;;;15.80;7.75;;;;;;;;;;5078642;28;20048;-62
2022/10/13 08:31:35;;;;;;;13.85;8.15;;;;;;;;;;5080748;28;20138;-62
2022/10/13 08:34:00;;;;;;;13.05;8.50;;;;;;;;;;5082909;28;20483;-62
2022/10/13 08:36:25;;;;;;;18.73;9.05;;;;;;;;;;5086892;28;20040;-62
2022/10/13 08:38:54;;;;;;;20.80;9.10;;;;;;;;;;5081190;28;20421;-62
2022/10/13 08:41:24;;;;;;;17.42;8.25;;;;;;;;;;5088874;28;20044;-62
2022/10/13 08:43:56;;;;;;;19.17;9.30;;;;;;;;;;5080727;28;20052;-62
2022/10/13 08:46:28;;;;;;;16.52;8.18;;;;;;;;;;5085081;28;20048;-61
2022/10/13 08:48:56;;;;;;;14.35;8.45;;;;;;;;;;5083740;28;20016;-61
2022/10/13 08:51:21;;;;;;;12.77;8.30;;;;;;;;;;5089097;28;20027;-61
2022/10/13 08:53:48;;;;;;;22.38;9.23;;;;;;;;;;5082612;28;20156;-61
2022/10/13 08:56:19;;;;;;;15.18;8.82;;;;;;;;;;5079665;28;20048;-61
2022/10/13 08:58:46;;;;;;;17.05;8.55;;;;;;;;;;5085001;28;20094;-61
2022/10/13 09:01:16;;;;;;;21.15;8.27;;;;;;;;;;5086893;28;20040;-62
2022/10/13 09:03:47;;;;;;;15.27;8.27;;;;;;;;;;5079782;28;20063;-62
2022/10/13 09:06:30;;;;;;;15.43;8.68;;;;;;;;;;5079475;28;20032;-69
2022/10/13 09:09:00;;;;;;;20.80;9.55;;;;;;;;;;5085756;28;20070;-70
2022/10/13 09:11:28;;;;;;;15.95;8.52;;;;;;;;;;5081081;28;20079;-70
2022/10/13 09:13:56;;;;;;;16.23;8.32;;;;;;;;;;5083433;28;20040;-70
2022/10/13 09:16:37;;;;;;;14.07;9.50;;;;;;;;;;5088314;28;20091;-72
2022/10/13 09:19:14;;;;;;;16.35;8.18;;;;;;;;;;5084717;28;20051;-69
2022/10/13 09:21:40;;;;;;;19.75;9.00;;;;;;;;;;5088899;28;20069;-70
2022/10/13 09:24:11;;;;;;;14.35;8.95;;;;;;;;;;5082969;28;20391;-69
2022/10/13 09:26:37;;;;;;;17.65;8.93;;;;;;;;;;5081273;28;20039;-70
2022/10/13 09:29:09;;;;;;;19.10;8.63;;;;;;;;;;5078237;28;20134;-70
2022/10/13 09:31:36;;;;;;;21.98;9.40;;;;;;;;;;5090226;28;20036;-70
2022/10/13 09:34:21;;;;;;;16.48;9.13;;;;;;;;;;5087521;28;20079;-71
2022/10/13 09:36:56;;;;;;;16.65;8.60;;;;;;;;;;5087611;28;20029;-70
2022/10/13 09:39:21;;;;;;;16.85;8.82;;;;;;;;;;5085410;28;20028;-70
2022/10/13 09:41:47;;;;;;;17.70;8.70;;;;;;;;;;5089416;28;20620;-70
2022/10/13 09:44:15;;;;;;;20.13;9.80;;;;;;;;;;5086502;28;20132;-71
2022/10/13 09:46:49;;;;;;;16.38;9.60;;;;;;;;;;5086692;28;20076;-70
2022/10/13 09:49:31;;;;;;;18.60;9.15;;;;;;;;;;5089415;28;20048;-71
2022/10/13 09:52:11;;;;;;;17.23;9.48;;;;;;;;;;5084163;28;20049;-70
2022/10/13 09:54:43;;;;;;;20.45;9.48;;;;;;;;;;5085447;28;20032;-71
2022/10/13 09:57:34;;;;;;;20.45;9.73;;;;;;;;;;5087328;28;20060;-69
2022/10/13 10:00:21;;;;;;;23.63;10.43;;;;;;;;;;5085413;28;20415;-70
2022/10/13 10:03:10;;;;;;;17.40;10.30;;;;;;;;;;5083271;28;20052;-69
2022/10/13 10:06:02;;;;;;;24.38;10.38;;;;;;;;;;5084261;28;20040;-66
2022/10/13 10:08:54;;;;;;;17.27;9.93;;;;;;;;;;5079183;28;20142;-67
2022/10/13 10:11:29;;;;;;;22.85;10.68;;;;;;;;;;5084349;28;20154;-67
2022/10/13 10:13:56;;;;;;;20.83;10.82;;;;;;;;;;5086405;28;20048;-67
2022/10/13 10:16:43;;;;;;;21.20;10.85;;;;;;;;;;5091129;28;20123;-67
2022/10/13 10:19:25;;;;;;;19.48;10.60;;;;;;;;;;5091554;28;20028;-66
2022/10/13 10:22:09;;;;;;;28.90;10.90;;;;;;;;;;5082781;28;20051;-66
2022/10/13 10:24:41;;;;;;;28.75;11.18;;;;;;;;;;5080553;28;20040;-66
2022/10/13 10:27:30;;;;;;;25.45;11.57;;;;;;;;;;5088724;28;20159;-66
2022/10/13 10:30:00;;;;;;;26.20;11.52;;;;;;;;;;5083203;28;20059;-66
2022/10/13 10:32:34;;;;;;;24.40;12.50;;;;;;;;;;5084142;28;20047;-67
2022/10/13 10:35:11;;;;;;;26.60;12.95;;;;;;;;;;5083465;28;20045;-66
2022/10/13 10:38:02;;;;;;;27.45;13.07;;;;;;;;;;5083226;28;20047;-66
2022/10/13 10:40:57;;;;;;;35.53;14.50;;;;;;;;;;5081843;28;20044;-68
2022/10/13 10:43:45;;;;;;;32.42;14.80;;;;;;;;;;5079838;28;21851;-68
2022/10/13 10:46:18;;;;;;;27.60;14.80;;;;;;;;;;5079727;28;20036;-64
2022/10/13 10:48:46;;;;;;;30.30;14.63;;;;;;;;;;5076865;28;20044;-66
2022/10/13 10:51:13;;;;;;;28.38;14.68;;;;;;;;;;5086390;28;20681;-66
2022/10/13 10:53:47;;;;;;;32.35;15.00;;;;;;;;;;5086452;28;20055;-69
2022/10/13 10:56:27;;;;;;;32.08;15.25;;;;;;;;;;5084337;28;20051;-67
2022/10/13 10:59:05;;;;;;;32.42;14.63;;;;;;;;;;5084866;28;20051;-66
2022/10/13 11:01:45;;;;;;;32.63;16.33;;;;;;;;;;5087143;28;20036;-65
2022/10/13 11:04:32;;;;;;;33.08;15.70;;;;;;;;;;5088109;28;20417;-66
2022/10/13 11:06:57;;;;;;;35.65;16.38;;;;;;;;;;5088513;28;20383;-66
2022/10/13 11:09:41;;;;;;;31.25;17.05;;;;;;;;;;5088469;28;20024;-68
2022/10/13 11:12:44;;;;;;;31.10;16.63;;;;;;;;;;5085103;28;20055;-67
2022/10/13 11:15:21;;;;;;;33.25;16.65;;;;;;;;;;5084860;28;20123;-67
2022/10/13 11:17:47;;;;;;;36.30;17.83;;;;;;;;;;5088113;28;20054;-68
2022/10/13 11:20:21;;;;;;;36.00;18.63;;;;;;;;;;5088868;28;20635;-68
2022/10/13 11:23:16;;;;;;;36.33;18.80;;;;;;;;;;5086554;28;20043;-68
2022/10/13 11:25:43;;;;;;;30.50;17.80;;;;;;;;;;5085735;28;20039;-68
2022/10/13 11:28:21;;;;;;;35.60;17.67;;;;;;;;;;5086325;28;20097;-66
2022/10/13 11:30:49;;;;;;;33.55;16.55;;;;;;;;;;5083758;28;20024;-65
2022/10/13 11:33:39;;;;;;;36.70;16.33;;;;;;;;;;5087442;28;20062;-67
2022/10/13 11:36:42;;;;;;;32.38;18.20;;;;;;;;;;5085116;28;20487;-67
2022/10/13 11:39:26;;;;;;;33.58;17.40;;;;;;;;;;5079989;28;20056;-66
2022/10/13 11:42:10;;;;;;;34.25;16.90;;;;;;;;;;5083366;28;20052;-67
2022/10/13 11:44:57;;;;;;;34.70;15.77;;;;;;;;;;5082713;28;20094;-71
2022/10/13 11:47:38;;;;;;;34.85;16.48;;;;;;;;;;5080158;28;20484;-65
2022/10/13 11:50:27;;;;;;;30.63;15.15;;;;;;;;;;5080009;28;20079;-68
2022/10/13 11:53:11;;;;;;;28.45;15.55;;;;;;;;;;5084719;28;20060;-67
2022/10/13 11:55:53;;;;;;;35.50;16.38;;;;;;;;;;5080790;28;20032;-68
2022/10/13 11:58:30;;;;;;;29.58;15.75;;;;;;;;;;5082207;28;20554;-67
2022/10/13 12:00:57;;;;;;;34.58;17.10;;;;;;;;;;5084853;28;20044;-67
2022/10/13 12:03:25;;;;;;;33.42;16.65;;;;;;;;;;5083762;28;20020;-68
2022/10/13 12:05:51;;;;;;;32.85;16.40;;;;;;;;;;5080676;28;20047;-67
2022/10/13 12:08:20;;;;;;;33.25;15.98;;;;;;;;;;5077457;28;20044;-67
2022/10/13 12:10:45;;;;;;;30.10;15.63;;;;;;;;;;5082883;28;20093;-68
2022/10/13 12:13:31;;;;;;;29.48;15.40;;;;;;;;;;5077915;28;20044;-68
2022/10/13 12:16:02;;;;;;;25.80;14.85;;;;;;;;;;5079573;28;20479;-68
2022/10/13 12:18:32;;;;;;;30.23;14.70;;;;;;;;;;5087147;28;20060;-67
2022/10/13 12:21:02;;;;;;;26.48;14.80;;;;;;;;;;5085886;28;20035;-67
2022/10/13 12:23:28;;;;;;;32.00;15.10;;;;;;;;;;5084360;28;20052;-66
2022/10/13 12:25:57;;;;;;;26.02;14.80;;;;;;;;;;5083236;28;20122;-68
2022/10/13 12:28:28;;;;;;;25.42;13.77;;;;;;;;;;5086948;28;20075;-70
2022/10/13 12:30:58;;;;;;;25.92;14.90;;;;;;;;;;5083952;28;20028;-66
2022/10/13 12:33:37;;;;;;;26.20;14.32;;;;;;;;;;5088196;28;20105;-66
2022/10/13 12:36:12;;;;;;;30.17;14.55;;;;;;;;;;5075361;28;20048;-71
2022/10/13 12:38:42;;;;;;;27.95;14.27;;;;;;;;;;5081596;28;20044;-68
2022/10/13 12:41:09;;;;;;;28.30;13.43;;;;;;;;;;5075500;28;20125;-68
2022/10/13 12:43:34;;;;;;;25.00;13.50;;;;;;;;;;5083162;28;20044;-67
2022/10/13 12:46:00;;;;;;;30.35;14.13;;;;;;;;;;5080093;28;20491;-67
2022/10/13 12:48:34;;;;;;;28.35;14.23;;;;;;;;;;5086842;28;20157;-67
2022/10/13 12:51:18;;;;;;;26.23;13.57;;;;;;;;;;5079200;28;20404;-67
2022/10/13 12:53:45;;;;;;;25.70;12.35;;;;;;;;;;5077466;28;20066;-69
2022/10/13 12:56:25;;;;;;;22.92;12.43;;;;;;;;;;5082501;28;20101;-66
2022/10/13 12:58:51;;;;;;;24.38;12.25;;;;;;;;;;5085232;28;20135;-66
2022/10/13 13:01:27;;;;;;;23.10;11.93;;;;;;;;;;5083221;28;20406;-68
2022/10/13 13:03:58;;;;;;;20.83;11.50;;;;;;;;;;5084624;28;20083;-68
2022/10/13 13:06:35;;;;;;;24.90;12.73;;;;;;;;;;5086011;28;20027;-67
2022/10/13 13:09:24;;;;;;;24.48;11.52;;;;;;;;;;5085462;28;20052;-67
2022/10/13 13:12:03;;;;;;;23.77;12.30;;;;;;;;;;5083273;28;20147;-67
2022/10/13 13:14:48;;;;;;;25.15;12.18;;;;;;;;;;5083481;28;20131;-66
2022/10/13 13:17:17;;;;;;;22.33;12.68;;;;;;;;;;5080323;28;20147;-65
2022/10/13 13:19:47;;;;;;;22.35;11.98;;;;;;;;;;5083097;28;20044;-67
2022/10/13 13:22:14;;;;;;;35.15;13.13;;;;;;;;;;5080271;28;20123;-70
2022/10/13 13:24:40;;;;;;;30.00;13.48;;;;;;;;;;5084107;28;20479;-68
2022/10/13 13:27:16;;;;;;;28.00;13.18;;;;;;;;;;5083310;28;20076;-67
2022/10/13 13:29:42;;;;;;;20.75;12.18;;;;;;;;;;5077910;28;20052;-67
2022/10/13 13:32:15;;;;;;;23.30;12.32;;;;;;;;;;5084588;28;20066;-66
2022/10/13 13:34:41;;;;;;;27.95;12.63;;;;;;;;;;5083180;28;20706;-65
2022/10/13 13:37:27;;;;;;;27.65;12.85;;;;;;;;;;5082748;28;20127;-66
2022/10/13 13:39:53;;;;;;;26.92;13.20;;;;;;;;;;5082052;28;20442;-66
2022/10/13 13:42:19;;;;;;;25.30;12.25;;;;;;;;;;5083793;28;20064;-66
2022/10/13 13:44:44;;;;;;;27.55;13.18;;;;;;;;;;5084678;28;20048;-65
2022/10/13 13:47:36;;;;;;;27.27;12.05;;;;;;;;;;5082951;28;20151;-66
2022/10/13 13:50:01;;;;;;;21.83;12.10;;;;;;;;;;5079345;28;20056;-65
2022/10/13 13:52:27;;;;;;;24.77;12.82;;;;;;;;;;5080920;28;20109;-66
2022/10/13 13:54:52;;;;;;;26.55;12.82;;;;;;;;;;5081493;28;20048;-67
2022/10/13 13:57:18;;;;;;;30.83;14.05;;;;;;;;;;5084081;28;20172;-67
2022/10/13 13:59:44;;;;;;;31.10;13.88;;;;;;;;;;5080904;28;20090;-66
2022/10/13 14:02:19;;;;;;;27.30;13.02;;;;;;;;;;5084586;28;20483;-67
2022/10/13 14:04:44;;;;;;;29.25;12.77;;;;;;;;;;5077576;28;20067;-64
2022/10/13 14:07:11;;;;;;;36.55;12.88;;;;;;;;;;5084386;28;20047;-66
2022/10/13 14:09:36;;;;;;;25.00;13.32;;;;;;;;;;5081653;28;20119;-66
2022/10/13 14:12:02;;;;;;;24.88;12.85;;;;;;;;;;5070768;28;20487;-66
2022/10/13 14:14:31;;;;;;;32.03;13.13;;;;;;;;;;5079855;28;20664;-66
2022/10/13 14:17:00;;;;;;;31.75;12.95;;;;;;;;;;5083070;28;20117;-68
2022/10/13 14:19:25;;;;;;;27.83;13.27;;;;;;;;;;5081910;28;20559;-67
2022/10/13 14:21:51;;;;;;;26.30;12.68;;;;;;;;;;5082910;28;20066;-68
2022/10/13 14:24:17;;;;;;;31.60;13.30;;;;;;;;;;5078586;28;20036;-68
2022/10/13 14:26:42;;;;;;;29.77;13.13;;;;;;;;;;5083796;28;20032;-65
2022/10/13 14:29:08;;;;;;;24.67;12.95;;;;;;;;;;5085785;28;20044;-68
2022/10/13 14:31:34;;;;;;;24.77;12.35;;;;;;;;;;5079827;28;20138;-68
2022/10/13 14:33:59;;;;;;;30.83;12.75;;;;;;;;;;5080536;28;21385;-67
2022/10/13 14:36:24;;;;;;;28.08;13.18;;;;;;;;;;5082239;28;20518;-66
2022/10/13 14:38:50;;;;;;;28.92;13.50;;;;;;;;;;5084623;28;20054;-67
2022/10/13 14:41:16;;;;;;;33.47;13.55;;;;;;;;;;5080379;28;20040;-67